createdAt,value
2023-03-31T04:00:29.569Z,0.00
2023-03-31T04:01:30.559Z,0.00
2023-03-31T04:02:30.604Z,0.00
2023-03-31T04:03:30.538Z,0.00
2023-03-31T04:04:30.493Z,0.00
2023-03-31T04:05:30.534Z,0.00
2023-03-31T04:06:30.470Z,0.00
2023-03-31T04:07:30.484Z,0.00
2023-03-31T04:08:30.466Z,0.00
2023-03-31T04:09:30.441Z,0.00
2023-03-31T04:10:30.446Z,0.00
2023-03-31T04:11:30.468Z,0.00
2023-03-31T04:12:30.408Z,0.00
2023-03-31T04:13:30.424Z,0.00
2023-03-31T04:14:30.389Z,0.00
2023-03-31T04:15:30.333Z,1.00
2023-03-31T04:16:30.366Z,1.00
2023-03-31T04:17:30.331Z,1.00
2023-03-31T04:18:30.295Z,1.00
2023-03-31T04:19:30.276Z,2.00
2023-03-31T04:20:30.334Z,2.00
2023-03-31T04:21:30.257Z,1.00
2023-03-31T04:22:30.335Z,0.00
2023-03-31T04:23:30.327Z,1.00
2023-03-31T04:24:30.330Z,1.00
2023-03-31T04:25:30.212Z,6.00
2023-03-31T04:26:30.299Z,5.00
2023-03-31T04:27:30.244Z,4.00
2023-03-31T04:28:30.202Z,4.00
2023-03-31T04:29:30.180Z,6.00
2023-03-31T04:30:30.168Z,6.00
2023-03-31T04:31:30.169Z,8.00
2023-03-31T04:32:30.153Z,9.00
2023-03-31T04:33:30.133Z,11.00
2023-03-31T04:34:30.205Z,17.00
2023-03-31T04:35:30.171Z,19.00
2023-03-31T04:36:30.097Z,24.00
2023-03-31T04:37:30.064Z,32.00
2023-03-31T04:38:30.064Z,31.00
2023-03-31T04:39:30.177Z,30.00
2023-03-31T04:40:30.063Z,37.00
2023-03-31T04:41:30.103Z,38.00
2023-03-31T04:42:30.050Z,44.00
2023-03-31T04:43:30.013Z,43.00
2023-03-31T04:44:30.024Z,49.00
2023-03-31T04:45:30.017Z,64.00
2023-03-31T04:46:30.006Z,81.00
2023-03-31T04:47:30.023Z,84.00
2023-03-31T04:48:29.985Z,91.00
2023-03-31T04:49:29.954Z,108.00
2023-03-31T04:50:29.951Z,111.00
2023-03-31T04:51:30.146Z,110.00
2023-03-31T04:52:29.904Z,112.00
2023-03-31T04:53:29.998Z,115.00
2023-03-31T04:54:29.904Z,121.00
2023-03-31T04:55:29.910Z,144.00
2023-03-31T04:56:29.868Z,165.00
2023-03-31T04:57:29.947Z,184.00
2023-03-31T04:58:29.850Z,208.00
2023-03-31T04:59:29.837Z,235.00
2023-03-31T05:00:29.890Z,254.00
2023-03-31T05:01:29.817Z,263.00
2023-03-31T05:02:29.892Z,270.00
2023-03-31T05:03:29.889Z,277.00
2023-03-31T05:04:29.791Z,297.00
2023-03-31T05:05:29.771Z,317.00
2023-03-31T05:06:29.765Z,337.00
2023-03-31T05:07:29.749Z,360.00
2023-03-31T05:08:29.764Z,392.00
2023-03-31T05:09:29.740Z,427.00
2023-03-31T05:10:29.742Z,449.00
2023-03-31T05:11:29.714Z,464.00
2023-03-31T05:12:29.708Z,482.00
2023-03-31T05:13:29.681Z,489.00
2023-03-31T05:14:29.686Z,505.00
2023-03-31T05:15:29.664Z,522.00
2023-03-31T05:16:29.698Z,538.00
2023-03-31T05:17:29.706Z,559.00
2023-03-31T05:18:29.641Z,585.00
2023-03-31T05:19:29.644Z,610.00
2023-03-31T05:20:29.604Z,638.00
2023-03-31T05:21:29.603Z,670.00
2023-03-31T05:22:29.612Z,694.00
2023-03-31T05:23:29.598Z,716.00
2023-03-31T05:24:29.624Z,735.00
2023-03-31T05:25:29.593Z,758.00
2023-03-31T05:26:29.587Z,788.00
2023-03-31T05:27:29.530Z,823.00
2023-03-31T05:28:31.229Z,853.00
2023-03-31T05:29:29.577Z,901.00
2023-03-31T05:30:29.515Z,887.00
2023-03-31T05:31:29.575Z,924.00
2023-03-31T05:32:29.522Z,929.00
2023-03-31T05:33:29.465Z,962.00
2023-03-31T05:34:29.493Z,981.00
2023-03-31T05:35:29.471Z,998.00
2023-03-31T05:36:29.487Z,1089.00
2023-03-31T05:37:29.424Z,1112.00
2023-03-31T05:38:29.439Z,966.00
2023-03-31T05:39:29.397Z,1233.00
2023-03-31T05:40:29.420Z,1062.00
2023-03-31T05:41:29.379Z,1138.00
2023-03-31T05:42:29.374Z,1314.00
2023-03-31T05:43:29.366Z,1139.00
2023-03-31T05:44:29.345Z,1103.00
2023-03-31T05:45:29.446Z,1331.00
2023-03-31T05:46:29.456Z,1286.00
2023-03-31T05:47:29.338Z,1234.00
2023-03-31T05:48:29.313Z,1437.00
2023-03-31T05:49:30.183Z,1450.00
2023-03-31T05:50:29.677Z,1213.00
2023-03-31T05:51:29.271Z,1426.00
2023-03-31T05:52:29.288Z,1335.00
2023-03-31T05:53:29.350Z,1084.00
2023-03-31T05:54:29.227Z,1275.00
2023-03-31T05:55:29.626Z,1169.00
2023-03-31T05:56:29.206Z,1084.00
2023-03-31T05:57:29.284Z,1143.00
2023-03-31T05:58:29.255Z,1199.00
2023-03-31T05:59:29.223Z,1367.00
2023-03-31T06:00:29.210Z,1192.00
2023-03-31T06:01:29.187Z,1141.00
2023-03-31T06:02:29.247Z,1315.00
2023-03-31T06:03:29.177Z,1096.00
2023-03-31T06:04:29.196Z,1040.00
2023-03-31T06:05:29.137Z,1087.00
2023-03-31T06:06:29.113Z,1119.00
2023-03-31T06:07:29.120Z,1104.00
2023-03-31T06:08:29.089Z,1103.00
2023-03-31T06:09:29.100Z,1126.00
2023-03-31T06:10:29.146Z,1158.00
2023-03-31T06:11:29.063Z,1194.00
2023-03-31T06:12:29.042Z,1231.00
2023-03-31T06:13:29.070Z,1272.00
2023-03-31T06:14:29.063Z,1317.00
2023-03-31T06:15:29.058Z,1345.00
2023-03-31T06:16:29.262Z,1301.00
2023-03-31T06:17:29.011Z,1473.00
2023-03-31T06:18:28.971Z,1550.00
2023-03-31T06:19:28.976Z,767.00
2023-03-31T06:20:28.956Z,1531.00
2023-03-31T06:21:28.951Z,1740.00
2023-03-31T06:22:28.944Z,1952.00
2023-03-31T06:23:28.898Z,2172.00
2023-03-31T06:24:28.907Z,1854.00
2023-03-31T06:25:34.521Z,1942.00
2023-03-31T06:26:28.917Z,2028.00
2023-03-31T06:27:28.907Z,2236.00
2023-03-31T06:28:28.905Z,2059.00
2023-03-31T06:29:28.865Z,2485.00
2023-03-31T06:30:28.846Z,2007.00
2023-03-31T06:31:28.881Z,1903.00
2023-03-31T06:32:28.864Z,1637.00
2023-03-31T06:33:28.846Z,1771.00
2023-03-31T06:34:28.801Z,1888.00
2023-03-31T06:35:28.827Z,2168.00
2023-03-31T06:36:28.818Z,2096.00
2023-03-31T06:37:28.774Z,1967.00
2023-03-31T06:38:28.908Z,2384.00
2023-03-31T06:39:28.768Z,3048.00
2023-03-31T06:40:28.733Z,3062.00
2023-03-31T06:41:28.737Z,3308.00
2023-03-31T06:42:28.728Z,3452.00
2023-03-31T06:43:28.730Z,3574.00
2023-03-31T06:44:28.789Z,3632.00
2023-03-31T06:45:28.699Z,3682.00
2023-03-31T06:46:28.781Z,3738.00
2023-03-31T06:47:28.667Z,3737.00
2023-03-31T06:48:28.695Z,3775.00
2023-03-31T06:49:28.633Z,3827.00
2023-03-31T06:50:28.627Z,3852.00
2023-03-31T06:51:30.623Z,3880.00
2023-03-31T06:52:28.617Z,4015.00
2023-03-31T06:53:28.589Z,4148.00
2023-03-31T06:54:28.596Z,4591.00
2023-03-31T06:55:28.561Z,2506.00
2023-03-31T06:56:28.652Z,2004.00
2023-03-31T06:57:28.609Z,3417.00
2023-03-31T06:58:31.165Z,3248.00
2023-03-31T06:59:28.571Z,4199.00
2023-03-31T07:00:28.500Z,3442.00
2023-03-31T07:01:28.541Z,3773.00
2023-03-31T07:02:28.746Z,3649.00
2023-03-31T07:03:28.627Z,4057.00
2023-03-31T07:04:28.505Z,4014.00
2023-03-31T07:05:28.476Z,3980.00
2023-03-31T07:06:28.446Z,4199.00
2023-03-31T07:07:28.477Z,4623.00
2023-03-31T07:08:28.425Z,5389.00
2023-03-31T07:09:28.464Z,3222.00
2023-03-31T07:10:28.415Z,1745.00
2023-03-31T07:11:28.402Z,3581.00
2023-03-31T07:12:28.625Z,3000.00
2023-03-31T07:13:28.431Z,2396.00
2023-03-31T07:14:28.376Z,3245.00
2023-03-31T07:15:28.424Z,5436.00
2023-03-31T07:16:28.401Z,5310.00
2023-03-31T07:17:28.369Z,4038.00
2023-03-31T07:18:28.310Z,3768.00
2023-03-31T07:19:28.311Z,3667.00
2023-03-31T07:20:28.311Z,3344.00
2023-03-31T07:21:28.301Z,2193.00
2023-03-31T07:22:28.285Z,2747.00
2023-03-31T07:23:28.268Z,4165.00
2023-03-31T07:24:28.250Z,3070.00
2023-03-31T07:25:28.273Z,2988.00
2023-03-31T07:26:28.255Z,3403.00
2023-03-31T07:27:28.251Z,4584.00
2023-03-31T07:28:28.238Z,4570.00
2023-03-31T07:29:28.251Z,4040.00
2023-03-31T07:30:28.227Z,4593.00
2023-03-31T07:31:28.174Z,5353.00
2023-03-31T07:32:29.193Z,4467.00
2023-03-31T07:33:28.146Z,5035.00
2023-03-31T07:34:28.149Z,4688.00
2023-03-31T07:35:28.289Z,4309.00
2023-03-31T07:36:28.182Z,2881.00
2023-03-31T07:37:28.142Z,3148.00
2023-03-31T07:38:28.072Z,4342.00
2023-03-31T07:39:28.079Z,3314.00
2023-03-31T07:40:28.069Z,3550.00
2023-03-31T07:41:28.064Z,2542.00
2023-03-31T07:42:28.087Z,3045.00
2023-03-31T07:43:28.048Z,4629.00
2023-03-31T07:44:28.020Z,5672.00
2023-03-31T07:45:28.015Z,5505.00
2023-03-31T07:46:28.021Z,5320.00
2023-03-31T07:47:28.064Z,5610.00
2023-03-31T07:48:28.015Z,5547.00
2023-03-31T07:49:27.969Z,6268.00
2023-03-31T07:50:27.952Z,5896.00
2023-03-31T07:51:27.980Z,6143.00
2023-03-31T07:52:27.937Z,6255.00
2023-03-31T07:53:27.933Z,6371.00
2023-03-31T07:54:27.894Z,6529.00
2023-03-31T07:55:27.893Z,7191.00
2023-03-31T07:56:27.936Z,8209.00
2023-03-31T07:57:27.920Z,6629.00
2023-03-31T07:58:27.861Z,5561.00
2023-03-31T07:59:27.841Z,6596.00
2023-03-31T08:00:27.856Z,3822.00
2023-03-31T08:01:27.947Z,2815.00
2023-03-31T08:02:28.049Z,4837.00
2023-03-31T08:03:27.861Z,6339.00
2023-03-31T08:04:27.899Z,6854.00
2023-03-31T08:05:27.805Z,5776.00
2023-03-31T08:06:27.771Z,3814.00
2023-03-31T08:07:27.775Z,3608.00
2023-03-31T08:08:27.793Z,3727.00
2023-03-31T08:09:27.798Z,3480.00
2023-03-31T08:10:27.740Z,3348.00
2023-03-31T08:11:27.744Z,3422.00
2023-03-31T08:12:27.702Z,3823.00
2023-03-31T08:13:27.774Z,3545.00
2023-03-31T08:14:38.300Z,4443.00
2023-03-31T08:15:27.688Z,4399.00
2023-03-31T08:16:27.758Z,4357.00
2023-03-31T08:17:27.723Z,5056.00
2023-03-31T08:18:27.690Z,6129.00
2023-03-31T08:19:27.738Z,4366.00
2023-03-31T08:20:27.649Z,3671.00
2023-03-31T08:21:27.612Z,2770.00
2023-03-31T08:22:27.580Z,4090.00
2023-03-31T08:23:27.575Z,3099.00
2023-03-31T08:24:27.596Z,4258.00
2023-03-31T08:25:27.575Z,4083.00
2023-03-31T08:26:27.549Z,4597.00
2023-03-31T08:27:27.551Z,5253.00
2023-03-31T08:28:27.524Z,5027.00
2023-03-31T08:29:27.537Z,5174.00
2023-03-31T08:30:27.540Z,6074.00
2023-03-31T08:31:27.681Z,5211.00
2023-03-31T08:32:27.493Z,4453.00
2023-03-31T08:33:27.491Z,5444.00
2023-03-31T08:34:27.493Z,3364.00
2023-03-31T08:35:27.469Z,4923.00
2023-03-31T08:36:27.524Z,7258.00
2023-03-31T08:37:27.434Z,3803.00
2023-03-31T08:38:27.445Z,8584.00
2023-03-31T08:39:27.490Z,6699.00
2023-03-31T08:40:27.433Z,9250.00
2023-03-31T08:41:28.152Z,4884.00
2023-03-31T08:42:27.376Z,4558.00
2023-03-31T08:43:27.386Z,4003.00
2023-03-31T08:44:27.393Z,4029.00
2023-03-31T08:45:27.371Z,4945.00
2023-03-31T08:46:27.415Z,5581.00
2023-03-31T08:47:27.410Z,4698.00
2023-03-31T08:48:27.321Z,4219.00
2023-03-31T08:49:27.348Z,3960.00
2023-03-31T08:50:27.302Z,3913.00
2023-03-31T08:51:27.276Z,3747.00
2023-03-31T08:52:27.249Z,3774.00
2023-03-31T08:53:27.259Z,3775.00
2023-03-31T08:54:27.230Z,3690.00
2023-03-31T08:55:27.267Z,3438.00
2023-03-31T08:56:27.225Z,3174.00
2023-03-31T08:57:27.355Z,3116.00
2023-03-31T08:58:28.146Z,3188.00
2023-03-31T08:59:27.236Z,3241.00
2023-03-31T09:00:27.252Z,3681.00
2023-03-31T09:01:27.195Z,3688.00
2023-03-31T09:02:27.297Z,3465.00
2023-03-31T09:03:27.284Z,3516.00
2023-03-31T09:04:27.169Z,3857.00
2023-03-31T09:05:27.132Z,3849.00
2023-03-31T09:06:27.104Z,3473.00
2023-03-31T09:07:27.130Z,4486.00
2023-03-31T09:08:27.087Z,3640.00
2023-03-31T09:09:27.120Z,3714.00
2023-03-31T09:10:27.078Z,4015.00
2023-03-31T09:11:27.072Z,1719.00
2023-03-31T09:12:27.041Z,8346.00
2023-03-31T09:13:27.030Z,8904.00
2023-03-31T09:14:27.030Z,2267.00
2023-03-31T09:15:27.036Z,9703.00
2023-03-31T09:16:27.111Z,9763.00
2023-03-31T09:17:27.017Z,10384.00
2023-03-31T09:18:27.141Z,10829.00
2023-03-31T09:19:26.968Z,11480.00
2023-03-31T09:20:26.984Z,11396.00
2023-03-31T09:21:26.934Z,6741.00
2023-03-31T09:22:26.945Z,6157.00
2023-03-31T09:23:26.933Z,8370.00
2023-03-31T09:24:26.973Z,5951.00
2023-03-31T09:25:26.911Z,8636.00
2023-03-31T09:26:26.925Z,6714.00
2023-03-31T09:27:26.877Z,10511.00
2023-03-31T09:28:26.913Z,7390.00
2023-03-31T09:29:26.911Z,4520.00
2023-03-31T09:30:26.846Z,4239.00
2023-03-31T09:31:26.950Z,4018.00
2023-03-31T09:32:26.844Z,2828.00
2023-03-31T09:33:26.809Z,7442.00
2023-03-31T09:34:26.801Z,3580.00
2023-03-31T09:35:26.938Z,1603.00
2023-03-31T09:36:26.813Z,5145.00
2023-03-31T09:37:26.830Z,2939.00
2023-03-31T09:38:26.758Z,2465.00
2023-03-31T09:39:26.749Z,3526.00
2023-03-31T09:40:26.769Z,3670.00
2023-03-31T09:41:26.769Z,3048.00
2023-03-31T09:42:26.801Z,2615.00
2023-03-31T09:43:26.719Z,2411.00
2023-03-31T09:44:26.727Z,1966.00
2023-03-31T09:45:26.704Z,1991.00
2023-03-31T09:46:26.753Z,2239.00
2023-03-31T09:47:26.680Z,1714.00
2023-03-31T09:48:26.679Z,5025.00
2023-03-31T09:49:26.657Z,4858.00
2023-03-31T09:50:26.658Z,2374.00
2023-03-31T09:51:26.638Z,9324.00
2023-03-31T09:52:26.621Z,12037.00
2023-03-31T09:53:26.594Z,13623.00
2023-03-31T09:54:26.576Z,9396.00
2023-03-31T09:55:39.074Z,15149.00
2023-03-31T09:56:26.592Z,11422.00
2023-03-31T09:57:26.776Z,7543.00
2023-03-31T09:58:26.522Z,6442.00
2023-03-31T09:59:26.542Z,5688.00
2023-03-31T10:00:26.517Z,5132.00
2023-03-31T10:01:26.527Z,4526.00
2023-03-31T10:02:26.685Z,3909.00
2023-03-31T10:03:26.509Z,3214.00
2023-03-31T10:04:26.578Z,2992.00
2023-03-31T10:05:26.493Z,2752.00
2023-03-31T10:06:26.467Z,2596.00
2023-03-31T10:07:26.435Z,2455.00
2023-03-31T10:08:26.409Z,2312.00
2023-03-31T10:09:26.427Z,2158.00
2023-03-31T10:10:26.396Z,1910.00
2023-03-31T10:11:26.396Z,1783.00
2023-03-31T10:12:26.380Z,1748.00
2023-03-31T10:13:26.367Z,1760.00
2023-03-31T10:14:26.351Z,2130.00
2023-03-31T10:15:26.357Z,2593.00
2023-03-31T10:16:26.418Z,2616.00
2023-03-31T10:17:26.448Z,2460.00
2023-03-31T10:18:26.355Z,2170.00
2023-03-31T10:19:26.306Z,1934.00
2023-03-31T10:20:26.280Z,2213.00
2023-03-31T10:21:26.703Z,2658.00
2023-03-31T10:22:26.296Z,3179.00
2023-03-31T10:23:26.249Z,3848.00
2023-03-31T10:24:26.253Z,4700.00
2023-03-31T10:25:26.240Z,5183.00
2023-03-31T10:26:26.223Z,6001.00
2023-03-31T10:27:26.226Z,6836.00
2023-03-31T10:28:26.201Z,6669.00
2023-03-31T10:29:26.197Z,6513.00
2023-03-31T10:30:26.206Z,6031.00
2023-03-31T10:31:26.222Z,5864.00
2023-03-31T10:32:26.241Z,5838.00
2023-03-31T10:33:26.164Z,5478.00
2023-03-31T10:34:26.131Z,4944.00
2023-03-31T10:35:26.116Z,4593.00
2023-03-31T10:36:26.106Z,4481.00
2023-03-31T10:37:26.133Z,4348.00
2023-03-31T10:38:26.083Z,4379.00
2023-03-31T10:39:26.094Z,4383.00
2023-03-31T10:40:26.044Z,4901.00
2023-03-31T10:41:26.088Z,4965.00
2023-03-31T10:42:26.088Z,4242.00
2023-03-31T10:43:26.061Z,3339.00
2023-03-31T10:44:26.010Z,2486.00
2023-03-31T10:45:36.637Z,2226.00
2023-03-31T10:46:26.232Z,2080.00
2023-03-31T10:47:26.061Z,1643.00
2023-03-31T10:48:26.005Z,1375.00
2023-03-31T10:49:25.995Z,1348.00
2023-03-31T10:50:25.956Z,1587.00
2023-03-31T10:51:25.976Z,1612.00
2023-03-31T10:52:25.971Z,1730.00
2023-03-31T10:53:25.915Z,2101.00
2023-03-31T10:54:25.929Z,2608.00
2023-03-31T10:55:25.941Z,3309.00
2023-03-31T10:56:25.871Z,4129.00
2023-03-31T10:57:25.944Z,4493.00
2023-03-31T10:58:25.860Z,4550.00
2023-03-31T10:59:25.866Z,4512.00
2023-03-31T11:00:25.848Z,4354.00
2023-03-31T11:01:25.873Z,4239.00
2023-03-31T11:02:25.877Z,4240.00
2023-03-31T11:03:25.985Z,4454.00
2023-03-31T11:04:25.803Z,4685.00
2023-03-31T11:05:25.802Z,4935.00
2023-03-31T11:06:25.780Z,5256.00
2023-03-31T11:07:25.773Z,5515.00
2023-03-31T11:08:25.771Z,5720.00
2023-03-31T11:09:25.727Z,5979.00
2023-03-31T11:10:25.736Z,6249.00
2023-03-31T11:11:25.724Z,6480.00
2023-03-31T11:12:25.712Z,8610.00
2023-03-31T11:13:25.696Z,8022.00
2023-03-31T11:14:25.762Z,6707.00
2023-03-31T11:15:25.679Z,7600.00
2023-03-31T11:16:25.727Z,7603.00
2023-03-31T11:17:25.760Z,6163.00
2023-03-31T11:18:25.686Z,5567.00
2023-03-31T11:19:25.645Z,5041.00
2023-03-31T11:20:25.615Z,4587.00
2023-03-31T11:21:25.673Z,4405.00
2023-03-31T11:22:25.597Z,4337.00
2023-03-31T11:23:25.572Z,4410.00
2023-03-31T11:24:25.575Z,4597.00
2023-03-31T11:25:25.568Z,4917.00
2023-03-31T11:26:25.561Z,4828.00
2023-03-31T11:27:25.664Z,5258.00
2023-03-31T11:28:25.534Z,5414.00
2023-03-31T11:29:25.698Z,5799.00
2023-03-31T11:30:25.521Z,5581.00
2023-03-31T11:31:25.508Z,5655.00
2023-03-31T11:32:25.495Z,5732.00
2023-03-31T11:33:25.465Z,5689.00
2023-03-31T11:34:25.472Z,5592.00
2023-03-31T11:35:25.445Z,5438.00
2023-03-31T11:36:25.488Z,5211.00
2023-03-31T11:37:25.427Z,5089.00
2023-03-31T11:38:25.420Z,5044.00
2023-03-31T11:39:25.505Z,5028.00
2023-03-31T11:40:25.410Z,5118.00
2023-03-31T11:41:25.394Z,5213.00
2023-03-31T11:42:25.385Z,5329.00
2023-03-31T11:43:25.368Z,5388.00
2023-03-31T11:44:25.367Z,5601.00
2023-03-31T11:45:25.366Z,5665.00
2023-03-31T11:46:25.418Z,5447.00
2023-03-31T11:47:25.405Z,5322.00
2023-03-31T11:48:25.331Z,4293.00
2023-03-31T11:49:25.304Z,3248.00
2023-03-31T11:50:25.315Z,2664.00
2023-03-31T11:51:25.277Z,2348.00
2023-03-31T11:52:25.292Z,1997.00
2023-03-31T11:53:25.283Z,1802.00
2023-03-31T11:54:25.234Z,1487.00
2023-03-31T11:55:25.245Z,1195.00
2023-03-31T11:56:25.218Z,1232.00
2023-03-31T11:57:25.317Z,1464.00
2023-03-31T11:58:25.231Z,1561.00
2023-03-31T11:59:25.209Z,1768.00
2023-03-31T12:00:25.523Z,2252.00
2023-03-31T12:01:25.189Z,2770.00
2023-03-31T12:02:25.256Z,3284.00
2023-03-31T12:03:25.218Z,3402.00
2023-03-31T12:04:25.176Z,3834.00
2023-03-31T12:05:25.156Z,4203.00
2023-03-31T12:06:25.234Z,4466.00
2023-03-31T12:07:25.100Z,4689.00
2023-03-31T12:08:25.107Z,4916.00
2023-03-31T12:09:25.153Z,4921.00
2023-03-31T12:10:25.096Z,5621.00
2023-03-31T12:11:25.056Z,6202.00
2023-03-31T12:12:25.048Z,6608.00
2023-03-31T12:13:25.077Z,8328.00
2023-03-31T12:14:25.008Z,8401.00
2023-03-31T12:15:25.015Z,7841.00
2023-03-31T12:16:25.110Z,7774.00
2023-03-31T12:17:25.036Z,8645.00
2023-03-31T12:18:25.018Z,7572.00
2023-03-31T12:19:24.980Z,8962.00
2023-03-31T12:20:24.975Z,8819.00
2023-03-31T12:21:24.992Z,8068.00
2023-03-31T12:22:24.942Z,8437.00
2023-03-31T12:23:24.935Z,8129.00
2023-03-31T12:24:24.955Z,8479.00
2023-03-31T12:25:24.990Z,6929.00
2023-03-31T12:26:24.999Z,5376.00
2023-03-31T12:27:24.920Z,4904.00
2023-03-31T12:28:24.885Z,4044.00
2023-03-31T12:29:24.849Z,3794.00
2023-03-31T12:30:25.128Z,3744.00
2023-03-31T12:31:25.015Z,3284.00
2023-03-31T12:32:24.874Z,2748.00
2023-03-31T12:33:24.894Z,2239.00
2023-03-31T12:34:24.797Z,1730.00
2023-03-31T12:35:24.804Z,1203.00
2023-03-31T12:36:24.794Z,891.00
2023-03-31T12:37:24.787Z,681.00
2023-03-31T12:38:24.753Z,510.00
2023-03-31T12:39:24.751Z,517.00
2023-03-31T12:40:24.768Z,548.00
2023-03-31T12:41:24.724Z,604.00
2023-03-31T12:42:25.241Z,774.00
2023-03-31T12:43:24.705Z,836.00
2023-03-31T12:44:24.713Z,907.00
2023-03-31T12:45:24.701Z,957.00
2023-03-31T12:46:24.751Z,1001.00
2023-03-31T12:47:24.759Z,1030.00
2023-03-31T12:48:24.692Z,1062.00
2023-03-31T12:49:24.621Z,1085.00
2023-03-31T12:50:24.639Z,1116.00
2023-03-31T12:51:24.668Z,1169.00
2023-03-31T12:52:24.615Z,1203.00
2023-03-31T12:53:24.651Z,1255.00
2023-03-31T12:54:24.577Z,1296.00
2023-03-31T12:55:24.562Z,1332.00
2023-03-31T12:56:24.568Z,1340.00
2023-03-31T12:57:24.627Z,1373.00
2023-03-31T12:58:24.669Z,1411.00
2023-03-31T12:59:24.550Z,1467.00
2023-03-31T13:00:24.530Z,1478.00
2023-03-31T13:01:24.651Z,1549.00
2023-03-31T13:02:24.556Z,1615.00
2023-03-31T13:03:24.578Z,1695.00
2023-03-31T13:04:24.506Z,1759.00
2023-03-31T13:05:24.533Z,1757.00
2023-03-31T13:06:24.486Z,1512.00
2023-03-31T13:07:28.878Z,1257.00
2023-03-31T13:08:24.430Z,1145.00
2023-03-31T13:09:24.549Z,1015.00
2023-03-31T13:10:24.530Z,786.00
2023-03-31T13:11:24.373Z,635.00
2023-03-31T13:12:24.382Z,619.00
2023-03-31T13:13:24.370Z,682.00
2023-03-31T13:14:24.356Z,643.00
2023-03-31T13:15:24.363Z,482.00
2023-03-31T13:16:24.365Z,362.00
2023-03-31T13:17:24.350Z,447.00
2023-03-31T13:18:24.350Z,658.00
2023-03-31T13:19:24.321Z,583.00
2023-03-31T13:20:24.287Z,448.00
2023-03-31T13:21:24.291Z,355.00
2023-03-31T13:22:24.280Z,270.00
2023-03-31T13:23:24.242Z,240.00
2023-03-31T13:24:24.256Z,222.00
2023-03-31T13:25:24.260Z,244.00
2023-03-31T13:26:24.257Z,245.00
2023-03-31T13:27:24.255Z,869.00
2023-03-31T13:28:24.558Z,1139.00
2023-03-31T13:29:24.188Z,1292.00
2023-03-31T13:30:24.177Z,1327.00
2023-03-31T13:31:24.317Z,986.00
2023-03-31T13:32:24.219Z,577.00
2023-03-31T13:33:24.395Z,528.00
2023-03-31T13:34:24.210Z,636.00
2023-03-31T13:35:24.276Z,856.00
2023-03-31T13:36:24.265Z,762.00
2023-03-31T13:37:24.112Z,803.00
2023-03-31T13:38:24.102Z,729.00
2023-03-31T13:39:24.184Z,941.00
2023-03-31T13:40:24.145Z,1000.00
2023-03-31T13:41:24.268Z,958.00
2023-03-31T13:42:24.366Z,1020.00
2023-03-31T13:43:24.128Z,1054.00
2023-03-31T13:44:24.193Z,1033.00
2023-03-31T13:45:24.226Z,1054.00
2023-03-31T13:46:24.236Z,1169.00
2023-03-31T13:47:24.347Z,1192.00
2023-03-31T13:48:24.281Z,1293.00
2023-03-31T13:49:24.267Z,1348.00
2023-03-31T13:50:24.067Z,1373.00
2023-03-31T13:51:24.224Z,1313.00
2023-03-31T13:52:24.015Z,1128.00
2023-03-31T13:53:24.400Z,1111.00
2023-03-31T13:54:24.073Z,1115.00
2023-03-31T13:55:24.069Z,913.00
2023-03-31T13:56:24.020Z,1234.00
2023-03-31T13:57:24.090Z,1399.00
2023-03-31T13:58:34.662Z,1482.00
2023-03-31T13:59:23.949Z,1679.00
2023-03-31T14:00:23.857Z,1511.00
2023-03-31T14:01:24.085Z,1630.00
2023-03-31T14:02:24.179Z,1672.00
2023-03-31T14:03:24.300Z,1735.00
2023-03-31T14:04:24.484Z,1503.00
2023-03-31T14:05:24.075Z,1147.00
2023-03-31T14:06:23.818Z,740.00
2023-03-31T14:07:23.821Z,1198.00
2023-03-31T14:08:23.997Z,1208.00
2023-03-31T14:09:23.736Z,1185.00
2023-03-31T14:10:24.400Z,1191.00
2023-03-31T14:11:23.865Z,1146.00
2023-03-31T14:12:23.728Z,1030.00
2023-03-31T14:13:23.878Z,1038.00
2023-03-31T14:14:23.876Z,1218.00
2023-03-31T14:15:23.901Z,1215.00
2023-03-31T14:16:23.764Z,1122.00
2023-03-31T14:17:23.877Z,793.00
2023-03-31T14:18:23.639Z,657.00
2023-03-31T14:19:23.647Z,791.00
2023-03-31T14:20:23.625Z,784.00
2023-03-31T14:21:23.632Z,775.00
2023-03-31T14:22:23.610Z,719.00
2023-03-31T14:23:23.625Z,544.00
2023-03-31T14:24:23.586Z,771.00
2023-03-31T14:25:23.580Z,1085.00
2023-03-31T14:26:23.556Z,1127.00
2023-03-31T14:27:23.569Z,1240.00
2023-03-31T14:28:23.536Z,1242.00
2023-03-31T14:29:23.534Z,1233.00
2023-03-31T14:30:23.534Z,1226.00
2023-03-31T14:31:23.583Z,1217.00
2023-03-31T14:32:23.516Z,1212.00
2023-03-31T14:33:23.478Z,1127.00
2023-03-31T14:34:23.466Z,1211.00
2023-03-31T14:35:23.476Z,1181.00
2023-03-31T14:36:23.465Z,1217.00
2023-03-31T14:37:23.433Z,1194.00
2023-03-31T14:38:23.453Z,1240.00
2023-03-31T14:39:23.406Z,1268.00
2023-03-31T14:40:23.415Z,1167.00
2023-03-31T14:41:23.385Z,1117.00
2023-03-31T14:42:23.402Z,1082.00
2023-03-31T14:43:23.408Z,1129.00
2023-03-31T14:44:23.354Z,1080.00
2023-03-31T14:45:23.397Z,1058.00
2023-03-31T14:46:23.364Z,1059.00
2023-03-31T14:47:23.380Z,1018.00
2023-03-31T14:48:23.349Z,1036.00
2023-03-31T14:49:23.342Z,923.00
2023-03-31T14:50:23.285Z,898.00
2023-03-31T14:51:23.283Z,903.00
2023-03-31T14:52:23.276Z,905.00
2023-03-31T14:53:23.306Z,896.00
2023-03-31T14:54:23.260Z,863.00
2023-03-31T14:55:25.209Z,809.00
2023-03-31T14:56:23.253Z,798.00
2023-03-31T14:57:23.329Z,862.00
2023-03-31T14:58:23.272Z,886.00
2023-03-31T14:59:23.209Z,889.00
2023-03-31T15:00:23.201Z,889.00
2023-03-31T15:01:23.294Z,889.00
2023-03-31T15:02:23.267Z,851.00
2023-03-31T15:03:23.154Z,913.00
2023-03-31T15:04:31.810Z,894.00
2023-03-31T15:05:23.182Z,873.00
2023-03-31T15:06:23.123Z,868.00
2023-03-31T15:07:23.130Z,881.00
2023-03-31T15:08:23.117Z,857.00
2023-03-31T15:09:23.093Z,851.00
2023-03-31T15:10:23.084Z,867.00
2023-03-31T15:11:23.066Z,915.00
2023-03-31T15:12:23.090Z,909.00
2023-03-31T15:13:23.046Z,956.00
2023-03-31T15:14:23.035Z,961.00
2023-03-31T15:15:23.013Z,973.00
2023-03-31T15:16:23.089Z,974.00
2023-03-31T15:17:23.017Z,977.00
2023-03-31T15:18:22.976Z,978.00
2023-03-31T15:19:23.011Z,983.00
2023-03-31T15:20:22.980Z,985.00
2023-03-31T15:21:22.946Z,989.00
2023-03-31T15:22:22.937Z,993.00
2023-03-31T15:23:22.948Z,996.00
2023-03-31T15:24:22.914Z,1011.00
2023-03-31T15:25:23.799Z,1019.00
2023-03-31T15:26:27.945Z,1030.00
2023-03-31T15:27:30.000Z,1022.00
2023-03-31T15:28:22.907Z,1039.00
2023-03-31T15:29:22.899Z,1046.00
2023-03-31T15:30:22.834Z,1063.00
2023-03-31T15:31:22.902Z,984.00
2023-03-31T15:32:23.068Z,844.00
2023-03-31T15:33:22.987Z,920.00
2023-03-31T15:34:23.149Z,931.00
2023-03-31T15:35:22.817Z,873.00
2023-03-31T15:36:22.867Z,952.00
2023-03-31T15:37:22.791Z,876.00
2023-03-31T15:38:22.777Z,682.00
2023-03-31T15:39:22.753Z,625.00
2023-03-31T15:40:22.740Z,654.00
2023-03-31T15:41:22.996Z,626.00
2023-03-31T15:42:22.720Z,582.00
2023-03-31T15:43:25.766Z,557.00
2023-03-31T15:44:22.891Z,660.00
2023-03-31T15:45:22.681Z,657.00
2023-03-31T15:46:22.812Z,784.00
2023-03-31T15:47:22.775Z,942.00
2023-03-31T15:48:22.757Z,1022.00
2023-03-31T15:49:22.662Z,1066.00
2023-03-31T15:50:22.706Z,1104.00
2023-03-31T15:51:22.606Z,1084.00
2023-03-31T15:52:22.588Z,1061.00
2023-03-31T15:53:23.296Z,1091.00
2023-03-31T15:54:22.837Z,1124.00
2023-03-31T15:55:22.599Z,1122.00
2023-03-31T15:56:22.546Z,1106.00
2023-03-31T15:57:22.636Z,1101.00
2023-03-31T15:58:22.521Z,1137.00
2023-03-31T15:59:25.110Z,1147.00
2023-03-31T16:00:22.528Z,1160.00
2023-03-31T16:01:22.594Z,1158.00
2023-03-31T16:02:22.538Z,1165.00
2023-03-31T16:03:24.038Z,1166.00
2023-03-31T16:04:22.519Z,1142.00
2023-03-31T16:05:26.837Z,1142.00
2023-03-31T16:06:22.465Z,1133.00
2023-03-31T16:07:22.472Z,1126.00
2023-03-31T16:08:22.438Z,1117.00
2023-03-31T16:09:22.434Z,1112.00
2023-03-31T16:10:22.439Z,1109.00
2023-03-31T16:11:22.439Z,1107.00
2023-03-31T16:12:22.406Z,1103.00
2023-03-31T16:13:22.370Z,1103.00
2023-03-31T16:14:22.404Z,1104.00